Time;durP1;ratioP1;P1;durP2;ratioP2;P2;SDS_P1;SDS_P2;PMS_P1;PMS_P2;Temp;Humidity;BMP_temperature;BMP_pressure;BME280_temperature;BME280_humidity;BME280_pressure;Samples;Min_cycle;Max_cycle;Signal;HPM_P1;HPM_P2
2023/01/13 06:00:21;;;;;;;1.00;0.50;;;10.60;97.20;;;;;;1721714;28;20185;-70
2023/01/13 06:01:12;;;;;;;1.33;0.60;;;10.60;97.20;;;;;;1721863;28;20216;-69
2023/01/13 06:02:04;;;;;;;1.50;0.60;;;10.60;97.20;;;;;;1720906;28;20204;-70
2023/01/13 06:02:54;;;;;;;1.25;0.50;;;10.60;97.20;;;;;;1720852;28;20232;-69
2023/01/13 06:03:46;;;;;;;1.00;0.60;;;10.60;97.20;;;;;;1721037;28;20193;-69
2023/01/13 06:04:37;;;;;;;1.67;0.60;;;10.60;97.20;;;;;;1720790;28;20208;-69
2023/01/13 06:05:29;;;;;;;0.70;0.50;;;10.60;97.20;;;;;;1721231;28;20197;-70
2023/01/13 06:06:19;;;;;;;1.10;0.50;;;10.60;97.20;;;;;;1721027;28;20236;-70
2023/01/13 06:07:11;;;;;;;0.80;0.50;;;10.60;97.20;;;;;;1721274;28;20197;-69
2023/01/13 06:08:04;;;;;;;2.60;1.50;;;10.60;97.20;;;;;;1719918;28;20637;-69
2023/01/13 06:08:55;;;;;;;2.70;1.45;;;10.60;97.20;;;;;;1720710;28;20205;-70
2023/01/13 06:09:46;;;;;;;2.47;1.63;;;10.60;97.20;;;;;;1720754;28;20193;-69
2023/01/13 06:10:38;;;;;;;1.63;0.90;;;10.60;97.20;;;;;;1726592;28;20216;-70
2023/01/13 06:11:28;;;;;;;1.60;0.75;;;10.60;97.20;;;;;;1723965;28;20197;-69
2023/01/13 06:12:20;;;;;;;0.90;0.70;;;10.60;97.20;;;;;;1727523;28;20235;-70
2023/01/13 06:13:11;;;;;;;1.45;0.60;;;10.60;97.20;;;;;;1727668;28;20204;-70
2023/01/13 06:14:02;;;;;;;0.80;0.70;;;10.60;97.20;;;;;;1727432;28;20234;-70
2023/01/13 06:14:53;;;;;;;1.23;0.82;;;10.60;97.20;;;;;;1726609;28;20763;-70
2023/01/13 06:15:46;;;;;;;1.00;0.70;;;10.70;97.20;;;;;;1720720;28;20693;-70
2023/01/13 06:16:37;;;;;;;2.22;1.25;;;10.60;97.20;;;;;;1720619;28;20212;-70
2023/01/13 06:17:29;;;;;;;0.80;0.60;;;10.60;97.20;;;;;;1720873;28;20208;-69
2023/01/13 06:18:19;;;;;;;1.17;1.08;;;10.60;97.20;;;;;;1720206;28;20456;-70
2023/01/13 06:19:12;;;;;;;1.83;1.07;;;10.60;97.20;;;;;;1720368;28;20235;-69
2023/01/13 06:20:04;;;;;;;0.93;0.50;;;10.70;97.20;;;;;;1722150;28;20201;-69
2023/01/13 06:20:55;;;;;;;1.02;0.65;;;10.60;97.20;;;;;;1720501;28;20611;-72
2023/01/13 06:21:47;;;;;;;0.95;0.70;;;10.60;97.20;;;;;;1726434;28;20224;-72
2023/01/13 06:22:41;;;;;;;1.50;0.70;;;10.70;97.20;;;;;;1727563;28;20204;-70
2023/01/13 06:23:37;;;;;;;2.25;1.25;;;10.70;97.20;;;;;;1722478;28;20224;-72
2023/01/13 06:24:29;;;;;;;3.95;2.65;;;10.70;97.20;;;;;;1720932;28;20659;-69
2023/01/13 06:25:28;;;;;;;11.02;7.53;;;10.70;97.20;;;;;;1720596;28;20193;-72
2023/01/13 06:26:21;;;;;;;11.70;7.95;;;10.70;97.20;;;;;;1720726;28;20205;-69
2023/01/13 06:27:13;;;;;;;8.50;5.45;;;10.70;97.20;;;;;;1720770;28;20213;-72
2023/01/13 06:28:05;;;;;;;4.78;3.10;;;10.70;97.20;;;;;;1720326;28;20201;-69
2023/01/13 06:28:56;;;;;;;2.42;1.70;;;10.70;97.20;;;;;;1720895;28;20209;-72
2023/01/13 06:29:48;;;;;;;2.50;1.63;;;10.70;97.20;;;;;;1721102;28;20205;-70
2023/01/13 06:30:44;;;;;;;2.35;1.50;;;10.70;97.20;;;;;;1719804;28;20715;-71
2023/01/13 06:31:39;;;;;;;3.25;2.00;;;10.70;97.20;;;;;;1725240;28;20682;-71
2023/01/13 06:32:34;;;;;;;4.63;2.45;;;10.70;97.20;;;;;;1727501;28;20208;-71
2023/01/13 06:33:30;;;;;;;2.95;1.70;;;10.70;97.20;;;;;;1723408;28;20636;-71
2023/01/13 06:34:20;;;;;;;2.75;1.55;;;10.70;97.20;;;;;;1720405;28;20241;-72
2023/01/13 06:35:17;;;;;;;1.73;1.17;;;10.70;97.20;;;;;;1721828;28;20205;-72
2023/01/13 06:36:14;;;;;;;0.68;0.50;;;10.70;97.20;;;;;;1723651;28;20189;-72
2023/01/13 06:37:06;;;;;;;1.30;0.80;;;10.70;97.20;;;;;;1719490;28;20193;-72
2023/01/13 06:38:00;;;;;;;1.05;0.80;;;10.70;97.20;;;;;;1720150;28;20209;-72
2023/01/13 06:38:54;;;;;;;1.60;1.00;;;10.70;97.20;;;;;;1719870;28;20682;-71
2023/01/13 06:39:46;;;;;;;0.90;0.70;;;10.70;97.20;;;;;;1720912;28;20909;-71
2023/01/13 06:40:38;;;;;;;1.27;0.70;;;10.70;97.20;;;;;;1721968;28;20213;-71
2023/01/13 06:43:50;;;;;;;1.38;0.93;;;10.70;97.20;;;;;;1719538;28;20267;-71
2023/01/13 06:44:42;;;;;;;1.10;0.70;;;10.70;97.20;;;;;;1720561;28;20267;-71
2023/01/13 06:45:34;;;;;;;2.05;1.20;;;10.60;97.20;;;;;;1720560;28;20205;-71
2023/01/13 06:46:25;;;;;;;1.33;0.90;;;10.60;97.20;;;;;;1720823;28;20212;-71
2023/01/13 06:47:18;;;;;;;1.55;0.73;;;10.60;97.20;;;;;;1715900;28;20691;-71
2023/01/13 06:48:09;;;;;;;1.45;0.90;;;10.60;97.20;;;;;;1720267;28;20201;-71
2023/01/13 06:49:00;;;;;;;1.40;0.98;;;10.60;97.20;;;;;;1720209;28;20263;-71
2023/01/13 06:49:52;;;;;;;1.30;0.70;;;10.60;97.20;;;;;;1721052;28;20197;-71
2023/01/13 06:50:43;;;;;;;1.00;0.60;;;10.60;97.20;;;;;;1719981;28;20323;-72
2023/01/13 06:51:34;;;;;;;0.80;0.60;;;10.60;97.20;;;;;;1724523;28;20200;-72
2023/01/13 06:52:26;;;;;;;1.55;0.65;;;10.60;97.20;;;;;;1727396;28;20454;-71
2023/01/13 06:53:19;;;;;;;0.80;0.70;;;10.60;97.20;;;;;;1727400;28;20228;-71
2023/01/13 06:54:09;;;;;;;1.55;0.82;;;10.50;97.20;;;;;;1727363;28;20204;-71
2023/01/13 06:55:01;;;;;;;0.70;0.50;;;10.50;97.20;;;;;;1727315;28;20196;-71
2023/01/13 06:55:52;;;;;;;1.42;0.70;;;10.50;97.20;;;;;;1720429;28;20763;-72
2023/01/13 06:56:44;;;;;;;1.07;0.63;;;10.50;97.20;;;;;;1720350;28;20667;-71
2023/01/13 06:57:45;;;;;;;1.00;0.70;;;10.50;97.20;;;;;;1720591;28;20216;-71
2023/01/13 06:58:36;;;;;;;1.13;0.70;;;10.40;97.20;;;;;;1719942;28;20272;-69
2023/01/13 06:59:27;;;;;;;1.38;0.73;;;10.40;97.20;;;;;;1720202;28;20205;-69
2023/01/13 07:00:20;;;;;;;1.05;0.60;;;10.40;97.20;;;;;;1725058;28;20275;-69
2023/01/13 07:01:11;;;;;;;5.30;0.80;;;10.40;97.20;;;;;;1722251;28;20204;-70
2023/01/13 07:02:03;;;;;;;0.90;0.60;;;10.40;97.20;;;;;;1727080;28;20203;-69
2023/01/13 07:03:05;;;;;;;0.77;0.50;;;10.40;97.20;;;;;;1727575;28;20204;-69
2023/01/13 07:03:57;;;;;;;0.93;0.50;;;10.40;97.20;;;;;;1727422;28;20189;-69
2023/01/13 07:04:48;;;;;;;1.42;0.60;;;10.40;97.20;;;;;;1722397;28;20200;-70
2023/01/13 07:05:41;;;;;;;0.80;0.50;;;10.40;97.20;;;;;;1720717;28;20640;-70
2023/01/13 07:06:32;;;;;;;1.27;0.50;;;10.40;97.20;;;;;;1720502;28;20201;-69
2023/01/13 07:07:23;;;;;;;0.80;0.60;;;10.40;97.20;;;;;;1720038;28;20202;-69
2023/01/13 07:08:15;;;;;;;1.20;0.70;;;10.40;97.20;;;;;;1719985;28;20201;-69
2023/01/13 07:09:05;;;;;;;1.00;0.60;;;10.40;97.20;;;;;;1720067;28;20205;-69
2023/01/13 07:09:57;;;;;;;2.03;0.70;;;10.50;97.20;;;;;;1721683;28;20200;-69
2023/01/13 07:10:48;;;;;;;5.05;0.50;;;10.50;97.20;;;;;;1724652;28;20224;-70
2023/01/13 07:11:39;;;;;;;0.70;0.50;;;10.50;97.20;;;;;;1721670;28;20205;-69
2023/01/13 07:15:16;;;;;;;0.90;0.50;;;10.50;97.20;;;;;;1720466;28;20239;-70
2023/01/13 07:16:12;;;;;;;0.73;0.57;;;10.50;97.20;;;;;;1699755;29;20247;-71
2023/01/13 07:17:03;;;;;;;0.90;0.40;;;10.50;97.20;;;;;;1705933;29;20230;-70
2023/01/13 07:18:02;;;;;;;1.17;0.60;;;10.50;97.20;;;;;;1705714;29;20797;-70
2023/01/13 07:18:53;;;;;;;1.80;0.70;;;10.60;97.20;;;;;;1713648;28;20468;-69
2023/01/13 07:19:45;;;;;;;0.82;0.60;;;10.60;97.20;;;;;;1717469;28;20232;-70
2023/01/13 07:20:35;;;;;;;0.80;0.57;;;10.60;97.20;;;;;;1726305;28;20227;-70
2023/01/13 07:21:27;;;;;;;1.17;0.50;;;10.60;97.20;;;;;;1722041;28;20215;-69
2023/01/13 07:22:18;;;;;;;1.15;0.50;;;10.60;97.20;;;;;;1727082;28;20205;-70
2023/01/13 07:23:09;;;;;;;0.73;0.50;;;10.60;97.20;;;;;;1727130;28;20205;-70
2023/01/13 07:24:00;;;;;;;1.30;0.65;;;10.60;97.20;;;;;;1725399;28;20232;-70
2023/01/13 07:24:52;;;;;;;0.70;0.40;;;10.60;97.20;;;;;;1720180;28;20209;-70
2023/01/13 07:25:42;;;;;;;0.70;0.45;;;10.60;97.20;;;;;;1720276;28;20217;-70
2023/01/13 07:26:34;;;;;;;1.17;0.60;;;10.60;97.20;;;;;;1720166;28;20193;-70
2023/01/13 07:27:25;;;;;;;0.70;0.60;;;10.60;97.20;;;;;;1720169;28;20232;-70
2023/01/13 07:28:16;;;;;;;1.10;0.40;;;10.60;97.20;;;;;;1719802;28;20211;-70
2023/01/13 07:29:07;;;;;;;1.23;0.70;;;10.60;97.20;;;;;;1720003;28;20213;-71
2023/01/13 07:29:59;;;;;;;0.70;0.47;;;10.60;97.20;;;;;;1721512;28;20203;-70
2023/01/13 07:30:50;;;;;;;1.00;0.60;;;10.60;97.20;;;;;;1719584;28;20476;-70
2023/01/13 07:31:41;;;;;;;1.67;0.60;;;10.60;97.20;;;;;;1725779;28;20283;-70
2023/01/13 07:32:32;;;;;;;1.92;0.77;;;10.60;97.20;;;;;;1721945;28;20252;-70
2023/01/13 07:33:26;;;;;;;1.35;0.80;;;10.60;97.20;;;;;;1720400;28;20746;-71
2023/01/13 07:34:16;;;;;;;0.93;0.68;;;10.60;97.20;;;;;;1720253;28;20205;-70
2023/01/13 07:35:08;;;;;;;1.27;0.67;;;10.60;97.20;;;;;;1718159;28;20194;-71
2023/01/13 07:36:01;;;;;;;0.80;0.50;;;10.70;97.20;;;;;;1719450;28;20846;-71
2023/01/13 07:36:52;;;;;;;1.02;0.65;;;10.70;97.20;;;;;;1719813;28;20201;-71
2023/01/13 07:37:43;;;;;;;0.90;0.60;;;10.70;97.20;;;;;;1720118;28;20745;-70
2023/01/13 07:38:35;;;;;;;0.80;0.50;;;10.70;97.20;;;;;;1719933;28;20566;-70
2023/01/13 07:39:26;;;;;;;0.80;0.60;;;10.70;97.20;;;;;;1719541;28;20208;-70
2023/01/13 07:40:18;;;;;;;0.80;0.50;;;10.70;97.20;;;;;;1724555;28;20215;-69
2023/01/13 07:43:30;;;;;;;0.95;0.45;;;10.70;97.20;;;;;;1699198;29;20203;-70
2023/01/13 07:44:22;;;;;;;0.75;0.50;;;10.70;97.20;;;;;;1707970;28;20283;-69
2023/01/13 07:45:13;;;;;;;1.20;0.40;;;10.70;97.20;;;;;;1714505;28;20201;-70
2023/01/13 07:46:06;;;;;;;0.90;0.60;;;10.70;97.20;;;;;;1720197;28;20201;-69
2023/01/13 07:46:57;;;;;;;1.98;0.50;;;10.70;97.20;;;;;;1719397;28;20212;-69
2023/01/13 07:47:51;;;;;;;0.90;0.80;;;10.70;97.20;;;;;;1719908;28;20312;-69
2023/01/13 07:48:45;;;;;;;1.65;0.70;;;10.70;97.20;;;;;;1720488;28;20205;-68
2023/01/13 07:49:37;;;;;;;1.30;0.50;;;10.80;97.20;;;;;;1720259;28;20229;-68
2023/01/13 07:50:27;;;;;;;1.00;0.40;;;10.80;97.20;;;;;;1720343;28;20765;-69
2023/01/13 07:51:19;;;;;;;1.30;0.63;;;10.80;97.20;;;;;;1719809;28;20196;-68
2023/01/13 07:52:10;;;;;;;0.80;0.50;;;10.80;97.20;;;;;;1719740;28;20220;-69
2023/01/13 07:53:02;;;;;;;0.80;0.50;;;10.80;97.20;;;;;;1720353;28;20717;-69
2023/01/13 07:53:53;;;;;;;0.70;0.43;;;10.80;97.20;;;;;;1720016;28;20213;-68
2023/01/13 07:54:45;;;;;;;0.85;0.50;;;10.80;97.20;;;;;;1720155;28;20213;-69
2023/01/13 07:55:41;;;;;;;1.15;0.40;;;10.80;97.20;;;;;;1719749;28;20204;-69
2023/01/13 07:56:32;;;;;;;0.60;0.40;;;10.80;97.20;;;;;;1719537;28;20223;-68
2023/01/13 07:57:23;;;;;;;3.28;0.50;;;10.80;97.20;;;;;;1719781;28;20205;-68
2023/01/13 07:58:15;;;;;;;0.80;0.40;;;10.80;97.20;;;;;;1719738;28;20663;-69
2023/01/13 07:59:06;;;;;;;2.35;0.47;;;10.80;97.20;;;;;;1720027;28;20257;-68
2023/01/13 07:59:57;;;;;;;1.10;0.67;;;10.80;97.20;;;;;;1720573;28;20200;-68
2023/01/13 08:00:48;;;;;;;0.82;0.50;;;10.80;97.20;;;;;;1721737;28;20225;-68
2023/01/13 08:01:40;;;;;;;0.77;0.47;;;10.80;97.20;;;;;;1721315;28;20191;-68
2023/01/13 08:02:30;;;;;;;0.70;0.50;;;10.80;97.20;;;;;;1719588;28;20671;-68
2023/01/13 08:03:23;;;;;;;0.80;0.60;;;10.80;97.20;;;;;;1719044;28;20658;-69
2023/01/13 08:04:15;;;;;;;0.85;0.45;;;10.80;97.20;;;;;;1720407;28;20939;-68
2023/01/13 08:05:08;;;;;;;0.95;0.63;;;10.80;97.20;;;;;;1717019;28;20236;-69
2023/01/13 08:06:00;;;;;;;1.98;0.50;;;10.90;97.20;;;;;;1720538;28;20209;-68
2023/01/13 08:06:51;;;;;;;0.73;0.47;;;10.90;97.20;;;;;;1719922;28;20209;-68
2023/01/13 08:07:42;;;;;;;1.13;0.50;;;10.90;97.20;;;;;;1720296;28;20205;-69
2023/01/13 08:08:34;;;;;;;0.88;0.40;;;10.90;97.20;;;;;;1719543;28;20284;-69
2023/01/13 08:09:30;;;;;;;0.70;0.50;;;10.90;97.20;;;;;;1720252;28;20208;-68
2023/01/13 08:10:21;;;;;;;1.00;0.40;;;10.90;97.20;;;;;;1720189;28;20201;-69
2023/01/13 08:11:12;;;;;;;0.70;0.40;;;10.90;97.20;;;;;;1720362;28;20201;-68
2023/01/13 08:13:19;;;;;;;1.33;0.60;;;10.90;97.20;;;;;;1719854;28;20196;-69
2023/01/13 08:14:10;;;;;;;0.75;0.50;;;10.90;97.20;;;;;;1720530;28;20280;-69
2023/01/13 08:15:02;;;;;;;0.83;0.60;;;11.00;97.20;;;;;;1718379;28;20202;-69
2023/01/13 08:15:58;;;;;;;0.80;0.50;;;11.00;97.20;;;;;;1720369;28;20263;-68
2023/01/13 08:16:50;;;;;;;1.27;0.70;;;11.00;97.20;;;;;;1720202;28;20193;-69
2023/01/13 08:17:41;;;;;;;3.17;0.60;;;11.00;97.20;;;;;;1720241;28;20201;-69
2023/01/13 08:18:33;;;;;;;0.73;0.57;;;11.00;97.20;;;;;;1719827;28;20205;-69
2023/01/13 08:19:25;;;;;;;1.35;0.73;;;11.00;97.20;;;;;;1720328;28;20216;-69
2023/01/13 08:20:18;;;;;;;0.90;0.70;;;11.10;97.20;;;;;;1720062;28;20197;-69
2023/01/13 08:21:11;;;;;;;1.23;0.98;;;11.10;97.20;;;;;;1720423;28;20580;-69
2023/01/13 08:22:03;;;;;;;0.93;0.60;;;11.10;97.20;;;;;;1720203;28;20201;-69
2023/01/13 08:22:56;;;;;;;1.15;0.52;;;11.10;97.20;;;;;;1720072;28;20208;-69
2023/01/13 08:23:47;;;;;;;0.80;0.50;;;11.20;97.20;;;;;;1720618;28;20197;-68
2023/01/13 08:24:38;;;;;;;0.90;0.50;;;11.20;97.20;;;;;;1720040;28;20202;-68
2023/01/13 08:25:30;;;;;;;1.00;0.50;;;11.20;97.20;;;;;;1717886;28;20225;-69
2023/01/13 08:26:21;;;;;;;0.80;0.60;;;11.30;97.20;;;;;;1720349;28;20445;-68
2023/01/13 08:27:13;;;;;;;0.80;0.60;;;11.30;97.20;;;;;;1720165;28;20224;-68
2023/01/13 08:28:04;;;;;;;0.68;0.47;;;11.30;97.20;;;;;;1719390;28;20220;-69
2023/01/13 08:28:55;;;;;;;0.80;0.50;;;11.30;97.20;;;;;;1720281;28;20197;-69
2023/01/13 08:29:46;;;;;;;0.80;0.55;;;11.30;97.20;;;;;;1720187;28;20208;-69
2023/01/13 08:30:38;;;;;;;0.85;0.55;;;11.30;97.20;;;;;;1719941;28;20233;-69
2023/01/13 08:31:30;;;;;;;2.83;0.70;;;11.20;97.20;;;;;;1720448;28;20209;-69
2023/01/13 08:32:21;;;;;;;1.30;1.20;;;11.20;97.20;;;;;;1719767;28;20197;-69
2023/01/13 08:33:21;;;;;;;1.43;0.90;;;11.20;97.20;;;;;;1720676;28;20193;-68
2023/01/13 08:34:12;;;;;;;0.80;0.60;;;11.20;97.20;;;;;;1719880;28;20208;-68
2023/01/13 08:35:06;;;;;;;0.87;0.70;;;11.10;97.20;;;;;;1720145;28;20193;-69
2023/01/13 08:35:57;;;;;;;1.20;0.60;;;11.10;97.20;;;;;;1720274;28;20258;-69
2023/01/13 08:36:49;;;;;;;1.35;0.70;;;11.10;97.20;;;;;;1719908;28;20205;-69
2023/01/13 08:37:40;;;;;;;1.58;1.10;;;11.10;97.20;;;;;;1720038;28;20216;-69
2023/01/13 08:38:33;;;;;;;1.83;1.20;;;11.10;97.20;;;;;;1719783;28;20292;-68
2023/01/13 08:39:24;;;;;;;0.93;0.70;;;11.10;97.20;;;;;;1720129;28;20448;-69
2023/01/13 08:40:17;;;;;;;2.10;1.47;;;11.00;97.20;;;;;;1720359;28;20254;-68
2023/01/13 08:41:09;;;;;;;3.15;1.08;;;11.00;97.20;;;;;;1720141;28;20449;-69
2023/01/13 08:42:00;;;;;;;2.03;1.83;;;11.00;97.20;;;;;;1720285;28;20626;-69
2023/01/13 08:42:52;;;;;;;1.65;1.48;;;11.00;97.20;;;;;;1720013;28;20213;-69
2023/01/13 08:43:44;;;;;;;2.95;2.22;;;11.00;97.20;;;;;;1719819;28;20193;-69
2023/01/13 08:44:35;;;;;;;1.60;1.30;;;11.10;97.20;;;;;;1720222;28;20594;-68
2023/01/13 08:45:26;;;;;;;3.47;1.67;;;11.10;97.20;;;;;;1719784;28;20559;-69
2023/01/13 08:46:17;;;;;;;3.05;2.40;;;11.00;97.20;;;;;;1721096;28;20670;-68
2023/01/13 08:47:09;;;;;;;2.40;1.83;;;11.00;97.20;;;;;;1720592;28;20205;-68
2023/01/13 08:48:00;;;;;;;1.00;0.85;;;11.00;97.20;;;;;;1719320;28;20444;-69
2023/01/13 08:48:52;;;;;;;1.42;0.80;;;11.00;97.20;;;;;;1720458;28;20201;-69
2023/01/13 08:49:43;;;;;;;0.90;0.65;;;11.00;97.20;;;;;;1719929;28;20642;-68
2023/01/13 08:50:36;;;;;;;0.93;0.70;;;11.00;97.20;;;;;;1720363;28;20239;-69
2023/01/13 08:51:27;;;;;;;1.95;0.70;;;10.90;97.20;;;;;;1720150;28;20197;-68
2023/01/13 08:52:18;;;;;;;1.17;0.50;;;10.90;97.20;;;;;;1720276;28;20201;-69
2023/01/13 08:53:10;;;;;;;0.80;0.60;;;10.90;97.20;;;;;;1720198;28;20455;-69
2023/01/13 08:54:01;;;;;;;1.50;0.60;;;10.90;97.20;;;;;;1719955;28;20194;-69
2023/01/13 08:54:53;;;;;;;0.77;0.50;;;10.90;97.20;;;;;;1720273;28;20211;-69
2023/01/13 08:55:43;;;;;;;1.15;0.50;;;10.90;97.20;;;;;;1719954;28;20448;-69
2023/01/13 08:56:35;;;;;;;1.53;0.50;;;10.90;97.20;;;;;;1720269;28;20201;-69
2023/01/13 08:57:26;;;;;;;2.10;0.77;;;10.90;97.20;;;;;;1720018;28;20212;-69
2023/01/13 08:58:17;;;;;;;1.00;0.73;;;10.80;97.20;;;;;;1719665;28;20288;-69
2023/01/13 08:59:11;;;;;;;3.20;0.70;;;10.80;97.20;;;;;;1720105;28;20202;-69
2023/01/13 09:00:04;;;;;;;1.10;0.60;;;10.80;97.20;;;;;;1720265;28;20193;-69
2023/01/13 09:00:55;;;;;;;1.60;0.73;;;10.80;97.20;;;;;;1719960;28;20217;-68
2023/01/13 09:01:47;;;;;;;2.10;0.70;;;10.80;97.20;;;;;;1713533;28;20205;-69
2023/01/13 09:02:38;;;;;;;1.23;0.70;;;10.80;97.20;;;;;;1713555;28;20213;-69
2023/01/13 09:03:29;;;;;;;1.23;0.60;;;10.80;97.20;;;;;;1718025;28;20201;-69
2023/01/13 09:04:23;;;;;;;1.17;0.67;;;10.80;97.20;;;;;;1713562;28;20297;-68
2023/01/13 09:05:14;;;;;;;1.17;0.50;;;10.80;97.20;;;;;;1713713;28;20242;-68
2023/01/13 09:06:08;;;;;;;0.80;0.60;;;10.80;97.20;;;;;;1717920;28;20197;-69
2023/01/13 09:07:01;;;;;;;1.60;0.77;;;10.80;97.20;;;;;;1719533;28;20259;-68
2023/01/13 09:07:52;;;;;;;1.42;0.60;;;10.80;97.20;;;;;;1719375;28;20193;-69
2023/01/13 09:08:43;;;;;;;0.80;0.50;;;10.80;97.20;;;;;;1720074;28;20205;-68
2023/01/13 09:09:35;;;;;;;2.03;0.60;;;10.70;97.20;;;;;;1719499;28;20201;-68
2023/01/13 09:10:26;;;;;;;1.58;0.70;;;10.70;97.20;;;;;;1719916;28;20634;-69
2023/01/13 09:13:38;;;;;;;0.80;0.60;;;10.70;97.20;;;;;;1720053;28;20209;-68
2023/01/13 09:14:31;;;;;;;0.70;0.52;;;10.70;97.20;;;;;;1720216;28;20247;-69
2023/01/13 09:15:23;;;;;;;0.70;0.43;;;10.70;97.20;;;;;;1721356;28;20211;-69
2023/01/13 09:16:14;;;;;;;2.70;0.60;;;10.70;97.20;;;;;;1720947;28;20262;-69
2023/01/13 09:17:06;;;;;;;1.00;0.67;;;10.60;97.20;;;;;;1720811;28;20193;-69
2023/01/13 09:17:59;;;;;;;2.88;0.70;;;10.60;97.20;;;;;;1720851;28;20280;-69
2023/01/13 09:18:49;;;;;;;1.27;0.70;;;10.70;97.20;;;;;;1721553;28;20209;-69
2023/01/13 09:19:42;;;;;;;1.17;0.60;;;10.60;97.20;;;;;;1721014;28;20228;-70
2023/01/13 09:20:32;;;;;;;0.90;0.60;;;10.60;97.20;;;;;;1721489;28;20741;-68
2023/01/13 09:21:26;;;;;;;1.00;0.80;;;10.60;97.20;;;;;;1721341;28;20678;-68
2023/01/13 09:22:18;;;;;;;1.30;0.75;;;10.50;97.20;;;;;;1721452;28;20209;-69
2023/01/13 09:23:10;;;;;;;0.93;0.63;;;10.50;97.20;;;;;;1721096;28;20197;-69
2023/01/13 09:24:02;;;;;;;1.00;0.77;;;10.50;97.20;;;;;;1721276;28;20620;-68
2023/01/13 09:24:54;;;;;;;0.70;0.50;;;10.50;97.20;;;;;;1721101;28;20617;-69
2023/01/13 09:25:47;;;;;;;1.00;0.50;;;10.50;97.20;;;;;;1721180;28;20209;-69
2023/01/13 09:26:38;;;;;;;0.93;0.50;;;10.50;97.20;;;;;;1720851;28;20694;-69
2023/01/13 09:27:30;;;;;;;0.77;0.53;;;10.50;97.20;;;;;;1720861;28;20578;-69
2023/01/13 09:28:21;;;;;;;0.80;0.60;;;10.40;97.20;;;;;;1720543;28;20679;-69
2023/01/13 09:29:12;;;;;;;1.07;0.60;;;10.40;97.20;;;;;;1721108;28;20639;-69
2023/01/13 09:30:04;;;;;;;1.10;0.50;;;10.40;97.20;;;;;;1721243;28;20201;-68
2023/01/13 09:31:00;;;;;;;0.70;0.60;;;10.40;97.20;;;;;;1721220;28;20283;-69
2023/01/13 09:31:51;;;;;;;1.70;0.60;;;10.40;97.20;;;;;;1714638;28;20221;-69
2023/01/13 09:32:42;;;;;;;1.07;0.60;;;10.40;97.20;;;;;;1714640;28;20201;-69
2023/01/13 09:35:00;;;;;;;1.33;0.60;;;10.40;97.20;;;;;;1706706;29;20254;-69
2023/01/13 09:35:50;;;;;;;0.93;0.68;;;10.50;97.20;;;;;;1721327;28;20628;-68
2023/01/13 09:36:43;;;;;;;0.70;0.50;;;10.50;97.20;;;;;;1720392;28;20611;-69
2023/01/13 09:37:37;;;;;;;0.70;0.40;;;10.50;97.20;;;;;;1721243;28;20232;-69
2023/01/13 09:38:28;;;;;;;0.70;0.40;;;10.50;97.20;;;;;;1720492;28;20209;-69
2023/01/13 09:39:21;;;;;;;0.70;0.50;;;10.50;97.20;;;;;;1720866;28;20230;-69
2023/01/13 09:40:17;;;;;;;1.02;0.50;;;10.50;97.20;;;;;;1721034;28;20208;-69
2023/01/13 09:43:53;;;;;;;0.70;0.50;;;10.50;97.20;;;;;;1720975;28;20244;-69
2023/01/13 09:44:48;;;;;;;0.70;0.50;;;10.60;97.20;;;;;;1714613;28;20201;-69
2023/01/13 09:45:46;;;;;;;0.70;0.50;;;10.50;97.20;;;;;;1714360;28;20206;-69
2023/01/13 09:46:42;;;;;;;0.90;0.50;;;10.50;97.20;;;;;;1720644;28;20200;-68
2023/01/13 09:47:42;;;;;;;1.15;0.55;;;10.50;97.20;;;;;;1721091;28;20227;-69
2023/01/13 09:48:50;;;;;;;0.90;0.73;;;10.50;97.20;;;;;;1719994;28;20194;-69
2023/01/13 09:49:42;;;;;;;0.85;0.50;;;10.40;97.20;;;;;;1721116;28;20190;-69
2023/01/13 09:50:45;;;;;;;0.77;0.55;;;10.40;97.20;;;;;;1720969;28;20637;-69
2023/01/13 09:51:44;;;;;;;1.58;0.90;;;10.40;97.20;;;;;;1721215;28;20220;-69
2023/01/13 09:52:38;;;;;;;0.90;0.80;;;10.40;97.20;;;;;;1714625;28;20209;-69
2023/01/13 09:53:33;;;;;;;1.10;0.65;;;10.40;97.20;;;;;;1716403;28;20218;-69
2023/01/13 09:54:31;;;;;;;1.13;0.50;;;10.40;97.20;;;;;;1721271;28;20278;-68
2023/01/13 09:55:29;;;;;;;1.25;0.73;;;10.40;97.20;;;;;;1721135;28;20181;-68
2023/01/13 09:56:19;;;;;;;1.52;1.33;;;10.40;97.20;;;;;;1721218;28;20198;-69
2023/01/13 09:57:13;;;;;;;0.80;0.67;;;10.50;97.20;;;;;;1720832;28;20202;-69
2023/01/13 09:58:12;;;;;;;1.48;0.50;;;10.70;97.20;;;;;;1720413;28;20977;-68
2023/01/13 09:59:03;;;;;;;0.90;0.60;;;10.80;97.20;;;;;;1720955;28;20193;-69
2023/01/13 09:59:57;;;;;;;0.80;0.50;;;10.80;97.20;;;;;;1721156;28;20279;-69
2023/01/13 10:01:02;;;;;;;4.40;0.90;;;10.80;97.20;;;;;;1721034;28;20229;-68
2023/01/13 10:01:58;;;;;;;1.30;1.02;;;10.80;97.20;;;;;;1721143;28;20193;-69
2023/01/13 10:03:15;;;;;;;1.52;0.77;;;10.90;97.20;;;;;;1721325;28;20625;-68
2023/01/13 10:04:16;;;;;;;1.55;0.85;;;10.80;97.20;;;;;;1720844;28;20276;-69
2023/01/13 10:05:14;;;;;;;1.73;1.33;;;10.80;97.20;;;;;;1721193;28;20194;-69
2023/01/13 10:06:14;;;;;;;1.17;1.08;;;10.80;97.20;;;;;;1720984;28;20208;-69
2023/01/13 10:07:14;;;;;;;1.08;0.98;;;10.80;97.20;;;;;;1720666;28;20544;-69
2023/01/13 10:08:10;;;;;;;3.20;0.70;;;10.70;97.20;;;;;;1719476;28;20224;-69
2023/01/13 10:09:02;;;;;;;1.08;0.85;;;10.60;97.20;;;;;;1720481;28;20247;-69
2023/01/13 10:09:55;;;;;;;0.90;0.60;;;10.60;97.20;;;;;;1720499;28;20213;-69
2023/01/13 10:10:48;;;;;;;1.10;0.60;;;10.50;97.20;;;;;;1720858;28;20216;-69
2023/01/13 10:14:11;;;;;;;1.30;0.65;;;10.50;97.20;;;;;;1721120;28;20251;-69
2023/01/13 10:15:01;;;;;;;1.00;0.60;;;10.50;97.20;;;;;;1721061;28;20205;-68
2023/01/13 10:16:23;;;;;;;0.90;0.60;;;10.40;97.20;;;;;;1721193;28;20677;-68
2023/01/13 10:17:21;;;;;;;0.80;0.60;;;10.40;97.20;;;;;;1720837;28;20334;-69
2023/01/13 10:18:18;;;;;;;1.10;0.60;;;10.40;97.20;;;;;;1720613;28;20199;-69
2023/01/13 10:19:18;;;;;;;0.85;0.57;;;10.30;97.20;;;;;;1720944;28;20201;-69
2023/01/13 10:20:17;;;;;;;0.80;0.47;;;10.40;97.20;;;;;;1720893;28;20217;-69
2023/01/13 10:21:21;;;;;;;1.40;0.70;;;11.00;97.20;;;;;;1721045;28;20224;-69
2023/01/13 10:22:37;;;;;;;1.15;0.70;;;11.90;97.20;;;;;;1721122;28;20190;-69
2023/01/13 10:23:52;;;;;;;1.20;0.50;;;14.00;97.20;;;;;;1721339;28;20571;-69
2023/01/13 10:25:01;;;;;;;0.70;0.60;;;14.80;97.20;;;;;;1727830;28;20577;-69
2023/01/13 10:26:05;;;;;;;0.70;0.50;;;16.30;97.20;;;;;;1727089;28;20189;-69
2023/01/13 10:27:02;;;;;;;1.45;0.55;;;16.90;97.20;;;;;;1727434;28;20192;-69
2023/01/13 10:27:55;;;;;;;0.70;0.50;;;18.50;97.20;;;;;;1713857;28;20567;-69
2023/01/13 10:28:50;;;;;;;0.88;0.57;;;20.00;97.20;;;;;;1716930;28;20247;-69
2023/01/13 10:29:42;;;;;;;0.90;0.70;;;21.30;97.20;;;;;;1720490;28;20200;-70
2023/01/13 10:30:35;;;;;;;0.93;0.70;;;22.70;97.20;;;;;;1720862;28;20248;-69
2023/01/13 10:31:27;;;;;;;0.80;0.60;;;23.50;97.20;;;;;;1720579;28;20193;-69
2023/01/13 10:32:17;;;;;;;0.70;0.50;;;24.90;97.20;;;;;;1720990;28;20640;-69
2023/01/13 10:33:12;;;;;;;0.80;0.50;;;26.40;97.20;;;;;;1720577;28;20201;-69
2023/01/13 10:34:03;;;;;;;0.70;0.52;;;28.00;97.20;;;;;;1718734;28;20197;-69
2023/01/13 10:34:56;;;;;;;1.30;0.60;;;28.70;97.20;;;;;;1720910;28;20197;-69
2023/01/13 10:35:50;;;;;;;1.20;0.50;;;30.10;97.20;;;;;;1720770;28;20205;-69
2023/01/13 10:36:54;;;;;;;1.02;0.60;;;31.30;97.20;;;;;;1720562;28;20201;-69
2023/01/13 10:37:57;;;;;;;1.10;0.60;;;32.50;96.80;;;;;;1720620;28;20258;-69
2023/01/13 10:38:49;;;;;;;0.80;0.50;;;32.80;94.00;;;;;;1721072;28;20193;-69
2023/01/13 10:39:44;;;;;;;0.80;0.50;;;32.10;92.40;;;;;;1720524;28;20212;-69
2023/01/13 10:40:35;;;;;;;0.95;0.63;;;30.80;92.60;;;;;;1720695;28;20240;-69
2023/01/13 10:41:27;;;;;;;0.80;0.60;;;29.50;94.50;;;;;;1720848;28;20290;-70
2023/01/13 10:42:21;;;;;;;1.05;0.50;;;28.10;96.30;;;;;;1720460;28;20444;-69
2023/01/13 10:43:13;;;;;;;1.15;0.50;;;26.80;97.20;;;;;;1720973;28;20336;-70
2023/01/13 10:44:12;;;;;;;0.70;0.50;;;25.60;97.20;;;;;;1720548;28;20197;-69
2023/01/13 10:45:04;;;;;;;0.98;0.60;;;24.40;97.20;;;;;;1720671;28;20202;-69
2023/01/13 10:45:58;;;;;;;1.38;0.60;;;23.30;97.20;;;;;;1720560;28;20695;-69
2023/01/13 10:46:53;;;;;;;1.40;0.50;;;22.40;97.20;;;;;;1719851;28;20189;-69
2023/01/13 10:48:04;;;;;;;1.42;0.60;;;21.30;97.20;;;;;;1720515;28;20213;-69
2023/01/13 10:48:58;;;;;;;1.20;0.60;;;20.00;97.20;;;;;;1718172;28;20662;-69
2023/01/13 10:50:16;;;;;;;1.52;0.70;;;19.20;97.20;;;;;;1720638;28;20209;-69
2023/01/13 10:51:18;;;;;;;0.90;0.68;;;18.20;97.20;;;;;;1714190;28;20194;-69
2023/01/13 10:52:26;;;;;;;1.13;0.73;;;17.30;97.20;;;;;;1714018;28;20589;-69
2023/01/13 10:53:21;;;;;;;1.90;0.85;;;16.60;97.20;;;;;;1714146;28;20217;-70
2023/01/13 10:54:21;;;;;;;1.45;0.85;;;16.10;97.20;;;;;;1718905;28;20643;-69
2023/01/13 10:55:25;;;;;;;1.00;0.60;;;15.60;97.20;;;;;;1720564;28;20213;-69
2023/01/13 10:56:18;;;;;;;1.40;0.63;;;15.20;97.20;;;;;;1720895;28;20587;-69